• Join FlightAware (Why Join?)
  • Login
  • US Flag 
Trick or treat! (Boo!!) 
06:01AM EDT


 

Airport Tracker/Info


-or-


 

Live Flight TrackerFlight Track Log ✈ UAL4093 ✈ 08-Apr-2013 ✈ KIAH - KABQ

Flight Track Log - Related Links

Times and Time Zones

All times are in EDT time to prevent confusion due to time zone crossing. See the UAL4093 flight status page for this flight to view local times or setup timezone preferences in your user account.

Time Position Orientation Groundspeed Altitude Reporting Facility
EDT Latitude Longitude Course Direction KTS MPH feet Rate Location/Type
10:17PM 30.0223 -95.7002 277° West  Level FlightAware Approximate
10:18PM 30.0353 -95.8230 276° West  Level FlightAware Approximate
10:19PM 30.0455 -95.9462 276° West  Level FlightAware Approximate
10:20PM 30.0681 -96.0660 276° West  Level FlightAware Approximate
10:21PM 30.0793 -96.1891 276° West  Level FlightAware Approximate
10:22PM 30.1005 -96.3038 279° West  Level FlightAware Approximate
10:23PM 30.1180 -96.4260 279° West  Level FlightAware Approximate
10:24PM 30.1356 -96.5482 280° West  Level FlightAware Approximate
10:25PM 30.1544 -96.6701 280° West  Level FlightAware Approximate
10:26PM 30.1750 -96.7917 283° West  Level FlightAware Approximate
10:27PM 30.1992 -96.9124 283° West  Level FlightAware Approximate
10:28PM 30.2061 -97.0349 291° West  Level FlightAware Approximate
10:29PM 30.2303 -97.1552 280° West  Level FlightAware Approximate
10:30PM 30.2491 -97.2773 280° West  Level FlightAware Approximate
10:31PM 30.2681 -97.3993 276° West  Level FlightAware Approximate
10:32PM 30.2794 -97.5226 276° West  Level FlightAware Approximate
10:33PM 30.2958 -97.6451 280° West  Level FlightAware Approximate
10:34PM 30.3151 -97.7671 280° West  Level FlightAware Approximate
10:35PM 30.3341 -97.8893 278° West  Level FlightAware Approximate
10:36PM 30.3494 -98.0121 278° West  Level FlightAware Approximate
10:37PM 30.3648 -98.1350 278° West  Level FlightAware Approximate
10:38PM 30.3861 -98.2566 282° West  Level FlightAware Approximate
10:39PM 30.4061 -98.3786 279° West  Level FlightAware Approximate
10:40PM 30.4226 -98.5013 279° West  Level FlightAware Approximate
10:41PM 30.4390 -98.6241 279° West  Level FlightAware Approximate
10:42PM 30.4552 -98.7469 279° West  Level FlightAware Approximate
10:43PM 30.4714 -98.8697 279° West  Level FlightAware Approximate
10:44PM 30.4874 -98.9926 279° West  Level FlightAware Approximate
10:45PM 30.5033 -99.1156 279° West  Level FlightAware Approximate
10:46PM 30.5191 -99.2385 279° West  Level FlightAware Approximate
10:47PM 30.5346 -99.3616 277° West  Level FlightAware Approximate
10:48PM 30.5480 -99.4850 277° West  Level FlightAware Approximate
10:49PM 30.5612 -99.6084 277° West  Level FlightAware Approximate
10:50PM 30.5744 -99.7319 277° West  Level FlightAware Approximate
10:51PM 30.5974 -99.8521 295° West  Level FlightAware Approximate
10:52PM 30.6423 -99.9651 295° West  Level FlightAware Approximate
10:53PM 30.6871 -100.0782 295° West  Level FlightAware Approximate
10:54PM 30.7318 -100.1914 295° West  Level FlightAware Approximate
10:55PM 30.7765 -100.3048 295° West  Level FlightAware Approximate
10:56PM 30.8210 -100.4182 295° West  Level FlightAware Approximate
10:57PM 30.8654 -100.5317 295° West  Level FlightAware Approximate
10:58PM 30.9097 -100.6454 294° West  Level FlightAware Approximate
10:59PM 30.9539 -100.7591 294° West  Level FlightAware Approximate
11:00PM 30.9980 -100.8730 294° West  Level FlightAware Approximate
11:01PM 31.0420 -100.9869 294° West  Level FlightAware Approximate
11:02PM 31.0859 -101.1010 294° West  Level FlightAware Approximate
11:03PM 31.1297 -101.2152 294° West  Level FlightAware Approximate
11:04PM 31.1735 -101.3294 294° West  Level FlightAware Approximate
11:05PM 31.2171 -101.4438 294° West  Level FlightAware Approximate
11:06PM 31.2606 -101.5583 294° West  Level FlightAware Approximate
11:07PM 31.3040 -101.6729 294° West  Level FlightAware Approximate
11:08PM 31.3473 -101.7876 294° West  Level FlightAware Approximate
11:09PM 31.3905 -101.9024 294° West  Level FlightAware Approximate
11:10PM 31.4336 -102.0173 293° West  Level FlightAware Approximate
11:11PM 31.4754 -102.1329 293° West  Level FlightAware Approximate
11:12PM 31.5171 -102.2486 293° West  Level FlightAware Approximate
11:13PM 31.5588 -102.3644 293° West  Level FlightAware Approximate
11:14PM 31.6003 -102.4803 293° West  Level FlightAware Approximate
11:15PM 31.6417 -102.5963 293° West  Level FlightAware Approximate
11:16PM 31.6830 -102.7124 293° West  Level FlightAware Approximate
11:17PM 31.7243 -102.8286 293° West  Level FlightAware Approximate
11:18PM 31.7654 -102.9449 293° West  Level FlightAware Approximate
11:19PM 31.8064 -103.0613 293° West  Level FlightAware Approximate
11:20PM 31.8472 -103.1779 292° West  Level FlightAware Approximate
11:21PM 31.9109 -103.2741 322° Northwest  Level FlightAware Approximate
11:22PM 31.9953 -103.3519 322° Northwest  Level FlightAware Approximate
11:23PM 32.0795 -103.4299 322° Northwest  Level FlightAware Approximate
11:24PM 32.1638 -103.5080 322° Northwest  Level FlightAware Approximate
11:25PM 32.2480 -103.5863 322° Northwest  Level FlightAware Approximate
11:26PM 32.3321 -103.6647 322° Northwest  Level FlightAware Approximate
11:27PM 32.4162 -103.7433 322° Northwest  Level FlightAware Approximate
11:28PM 32.5003 -103.8220 322° Northwest  Level FlightAware Approximate
11:29PM 32.5842 -103.9009 321° Northwest  Level FlightAware Approximate
11:30PM 32.6680 -103.9801 321° Northwest  Level FlightAware Approximate
11:31PM 32.7517 -104.0595 321° Northwest  Level FlightAware Approximate
11:32PM 32.8354 -104.1391 321° Northwest  Level FlightAware Approximate
11:33PM 32.9190 -104.2188 321° Northwest  Level FlightAware Approximate
11:34PM 33.0026 -104.2987 321° Northwest  Level FlightAware Approximate
11:35PM 33.0861 -104.3787 321° Northwest  Level FlightAware Approximate
11:36PM 33.1696 -104.4588 321° Northwest  Level FlightAware Approximate
11:37PM 33.2530 -104.5391 321° Northwest  Level FlightAware Approximate
11:38PM 33.3363 -104.6198 318° Northwest  Level FlightAware Approximate
11:39PM 33.4160 -104.7055 318° Northwest  Level FlightAware Approximate
11:40PM 33.4956 -104.7913 318° Northwest  Level FlightAware Approximate
11:41PM 33.5771 -104.8746 323° Northwest  Level FlightAware Approximate
11:42PM 33.6626 -104.9522 323° Northwest  Level FlightAware Approximate
11:43PM 33.7460 -105.0325 314° West  Level FlightAware Approximate
11:44PM 33.8226 -105.1225 320° Northwest  Level FlightAware Approximate
11:45PM 33.9050 -105.2048 320° Northwest  Level FlightAware Approximate
11:46PM 33.9874 -105.2873 320° Northwest  Level FlightAware Approximate
11:47PM 34.0699 -105.3698 320° Northwest  Level FlightAware Approximate
11:48PM 34.1524 -105.4523 320° Northwest  Level FlightAware Approximate
11:49PM 34.2350 -105.5348 320° Northwest  Level FlightAware Approximate
11:50PM 34.3175 -105.6175 320° Northwest  Level FlightAware Approximate
11:51PM 34.4001 -105.7001 320° Northwest  Level FlightAware Approximate
11:52PM 34.4895 -105.7712 328° Northwest  Level FlightAware Approximate
11:53PM 34.5807 -105.8395 328° Northwest  Level FlightAware Approximate
11:54PM 34.6718 -105.9080 328° Northwest  Level FlightAware Approximate
11:55PM 34.7624 -105.9774 328° Northwest  Level FlightAware Approximate
11:56PM 34.8530 -106.0471 328° Northwest  Level FlightAware Approximate
11:57PM 34.9497 -106.0999 345° North  Level FlightAware Approximate
11:58PM 34.9684 -106.2283 280° West  Level FlightAware Approximate
11:59PM 34.9854 -106.3574 276° West  Level FlightAware Approximate
12:00AM 34.9962 -106.4874 276° West  Level FlightAware Approximate
12:01AM 35.0112 -106.6169 279° West  Level FlightAware Approximate
12:02AM 35.0402 -106.6092 279° West  Level Estimated
12:03AM 35.0402 -106.6092 90° East  Level Estimated
12:04AM 35.0402 -106.6092 90° East  Level Estimated